sensor_id;sensor_type;location;lat;lon;timestamp;pressure;altitude;pressure_sealevel;temperature;humidity
19783;BME280;10051;40.294;-3.754;2023-07-20T00:01:27;94053.72;;;30.97;17.97
19783;BME280;10051;40.294;-3.754;2023-07-20T00:03:53;93997.41;;;30.58;18.04
19783;BME280;10051;40.294;-3.754;2023-07-20T00:06:25;94029.22;;;30.81;17.95
19783;BME280;10051;40.294;-3.754;2023-07-20T00:08:55;94029.72;;;30.72;18.10
19783;BME280;10051;40.294;-3.754;2023-07-20T00:11:26;94049.28;;;30.87;18.08
19783;BME280;10051;40.294;-3.754;2023-07-20T00:13:52;94056.28;;;30.84;18.12
19783;BME280;10051;40.294;-3.754;2023-07-20T00:16:17;94047.78;;;30.82;17.99
19783;BME280;10051;40.294;-3.754;2023-07-20T00:18:43;94047.41;;;30.80;17.95
19783;BME280;10051;40.294;-3.754;2023-07-20T00:21:09;94042.34;;;30.82;17.85
19783;BME280;10051;40.294;-3.754;2023-07-20T00:23:35;94040.78;;;30.85;17.75
19783;BME280;10051;40.294;-3.754;2023-07-20T00:26:00;93942.22;;;30.17;17.84
19783;BME280;10051;40.294;-3.754;2023-07-20T00:28:26;94023.81;;;30.77;17.49
19783;BME280;10051;40.294;-3.754;2023-07-20T00:30:51;94027.50;;;30.91;17.57
19783;BME280;10051;40.294;-3.754;2023-07-20T00:33:17;94029.78;;;30.92;17.60
19783;BME280;10051;40.294;-3.754;2023-07-20T00:35:46;94029.22;;;30.81;17.43
19783;BME280;10051;40.294;-3.754;2023-07-20T00:38:11;93940.03;;;30.32;17.49
19783;BME280;10051;40.294;-3.754;2023-07-20T00:40:38;93954.06;;;30.26;17.28
19783;BME280;10051;40.294;-3.754;2023-07-20T00:43:04;93974.00;;;30.40;17.37
19783;BME280;10051;40.294;-3.754;2023-07-20T00:45:29;93990.88;;;30.51;17.25
19783;BME280;10051;40.294;-3.754;2023-07-20T00:47:56;93980.84;;;30.48;17.45
19783;BME280;10051;40.294;-3.754;2023-07-20T00:50:24;94029.22;;;30.81;17.37
19783;BME280;10051;40.294;-3.754;2023-07-20T00:52:50;94007.53;;;30.77;17.41
19783;BME280;10051;40.294;-3.754;2023-07-20T00:55:16;94013.75;;;30.78;17.18
19783;BME280;10051;40.294;-3.754;2023-07-20T00:57:43;93962.09;;;30.34;17.47
19783;BME280;10051;40.294;-3.754;2023-07-20T01:00:09;93985.56;;;30.44;17.46
19783;BME280;10051;40.294;-3.754;2023-07-20T01:02:35;94019.09;;;30.58;17.72
19783;BME280;10051;40.294;-3.754;2023-07-20T01:05:02;93958.09;;;30.18;17.58
19783;BME280;10051;40.294;-3.754;2023-07-20T01:07:34;93992.59;;;30.41;17.57
19783;BME280;10051;40.294;-3.754;2023-07-20T01:10:14;94015.97;;;30.59;17.53
19783;BME280;10051;40.294;-3.754;2023-07-20T01:12:47;94019.47;;;30.60;17.52
19783;BME280;10051;40.294;-3.754;2023-07-20T01:15:13;93974.28;;;30.22;17.58
19783;BME280;10051;40.294;-3.754;2023-07-20T01:17:39;93997.34;;;30.34;17.78
19783;BME280;10051;40.294;-3.754;2023-07-20T01:20:11;94014.13;;;30.52;17.69
19783;BME280;10051;40.294;-3.754;2023-07-20T01:22:47;94017.94;;;30.55;17.65
19783;BME280;10051;40.294;-3.754;2023-07-20T01:33:20;93992.97;;;30.16;18.13
19783;BME280;10051;40.294;-3.754;2023-07-20T01:35:52;93982.25;;;30.05;18.09
19783;BME280;10051;40.294;-3.754;2023-07-20T01:38:19;94007.06;;;30.31;18.26
19783;BME280;10051;40.294;-3.754;2023-07-20T01:40:45;93960.69;;;29.94;18.52
19783;BME280;10051;40.294;-3.754;2023-07-20T01:43:12;93977.25;;;30.04;18.23
19783;BME280;10051;40.294;-3.754;2023-07-20T01:45:38;93983.09;;;30.02;18.54
19783;BME280;10051;40.294;-3.754;2023-07-20T01:48:04;93981.66;;;29.90;18.69
19783;BME280;10051;40.294;-3.754;2023-07-20T01:50:29;93995.94;;;29.94;18.87
19783;BME280;10051;40.294;-3.754;2023-07-20T01:52:55;93931.91;;;29.46;18.94
19783;BME280;10051;40.294;-3.754;2023-07-20T01:55:20;93974.03;;;29.81;19.01
19783;BME280;10051;40.294;-3.754;2023-07-20T01:57:46;93990.88;;;29.96;18.69
19783;BME280;10051;40.294;-3.754;2023-07-20T02:00:12;93982.06;;;29.89;19.21
19783;BME280;10051;40.294;-3.754;2023-07-20T02:02:37;93949.34;;;29.45;19.04
19783;BME280;10051;40.294;-3.754;2023-07-20T02:05:03;93966.81;;;29.40;19.26
19783;BME280;10051;40.294;-3.754;2023-07-20T02:07:29;93960.28;;;29.34;19.27
19783;BME280;10051;40.294;-3.754;2023-07-20T02:09:54;93973.03;;;29.37;19.69
19783;BME280;10051;40.294;-3.754;2023-07-20T02:12:20;93949.56;;;29.23;19.63
19783;BME280;10051;40.294;-3.754;2023-07-20T02:14:45;93870.16;;;28.64;19.85
19783;BME280;10051;40.294;-3.754;2023-07-20T02:17:11;93967.66;;;29.33;19.70
19783;BME280;10051;40.294;-3.754;2023-07-20T02:19:37;93984.69;;;29.30;19.51
19783;BME280;10051;40.294;-3.754;2023-07-20T02:22:02;93958.09;;;29.21;19.49
19783;BME280;10051;40.294;-3.754;2023-07-20T02:24:28;93966.66;;;29.16;19.68
19783;BME280;10051;40.294;-3.754;2023-07-20T02:26:54;93958.50;;;29.20;19.83
19783;BME280;10051;40.294;-3.754;2023-07-20T02:29:19;93946.03;;;28.91;19.60
19783;BME280;10051;40.294;-3.754;2023-07-20T02:31:45;93964.84;;;29.06;19.69
19783;BME280;10051;40.294;-3.754;2023-07-20T02:34:10;93956.44;;;28.93;19.76
19783;BME280;10051;40.294;-3.754;2023-07-20T02:36:36;93976.94;;;28.94;19.78
19783;BME280;10051;40.294;-3.754;2023-07-20T02:39:01;93979.72;;;28.87;20.17
19783;BME280;10051;40.294;-3.754;2023-07-20T02:41:32;93969.47;;;29.05;19.98
19783;BME280;10051;40.294;-3.754;2023-07-20T02:43:58;93965.78;;;28.88;19.79
19783;BME280;10051;40.294;-3.754;2023-07-20T02:46:23;93942.84;;;28.58;20.27
19783;BME280;10051;40.294;-3.754;2023-07-20T02:48:49;93970.53;;;28.73;20.21
19783;BME280;10051;40.294;-3.754;2023-07-20T02:51:15;93940.69;;;28.39;20.11
19783;BME280;10051;40.294;-3.754;2023-07-20T02:53:40;93949.06;;;28.52;20.15
19783;BME280;10051;40.294;-3.754;2023-07-20T02:56:06;93976.47;;;28.57;20.22
19783;BME280;10051;40.294;-3.754;2023-07-20T02:58:34;93926.19;;;28.18;19.99
19783;BME280;10051;40.294;-3.754;2023-07-20T03:01:02;93825.88;;;27.59;20.48
19783;BME280;10051;40.294;-3.754;2023-07-20T03:03:28;93883.94;;;27.82;20.38
19783;BME280;10051;40.294;-3.754;2023-07-20T03:05:54;93918.84;;;28.11;20.32
19783;BME280;10051;40.294;-3.754;2023-07-20T03:08:21;93914.00;;;27.92;20.63
19783;BME280;10051;40.294;-3.754;2023-07-20T03:10:47;93953.97;;;28.22;20.45
19783;BME280;10051;40.294;-3.754;2023-07-20T03:13:13;93917.72;;;28.09;20.29
19783;BME280;10051;40.294;-3.754;2023-07-20T03:15:39;93969.63;;;28.42;20.57
19783;BME280;10051;40.294;-3.754;2023-07-20T03:18:05;93979.28;;;28.43;20.75
19783;BME280;10051;40.294;-3.754;2023-07-20T03:20:31;93975.44;;;28.40;20.67
19783;BME280;10051;40.294;-3.754;2023-07-20T03:22:56;93894.72;;;27.89;20.85
19783;BME280;10051;40.294;-3.754;2023-07-20T03:25:22;93957.38;;;28.30;20.98
19783;BME280;10051;40.294;-3.754;2023-07-20T03:27:48;93971.63;;;28.34;21.11
19783;BME280;10051;40.294;-3.754;2023-07-20T03:30:13;93952.72;;;28.34;21.11
19783;BME280;10051;40.294;-3.754;2023-07-20T03:32:39;93877.75;;;27.85;20.90
19783;BME280;10051;40.294;-3.754;2023-07-20T03:35:05;93942.34;;;28.25;21.40
19783;BME280;10051;40.294;-3.754;2023-07-20T03:37:31;93949.69;;;28.25;21.55
19783;BME280;10051;40.294;-3.754;2023-07-20T03:39:57;93909.28;;;28.03;21.79
19783;BME280;10051;40.294;-3.754;2023-07-20T03:42:23;93941.09;;;28.37;21.47
19783;BME280;10051;40.294;-3.754;2023-07-20T03:44:48;93890.84;;;27.90;21.40
19783;BME280;10051;40.294;-3.754;2023-07-20T03:47:14;93933.94;;;28.09;21.78
19783;BME280;10051;40.294;-3.754;2023-07-20T03:49:39;93929.78;;;27.97;22.36
19783;BME280;10051;40.294;-3.754;2023-07-20T03:52:05;93870.22;;;27.58;22.36
19783;BME280;10051;40.294;-3.754;2023-07-20T03:54:31;93934.41;;;27.96;22.26
19783;BME280;10051;40.294;-3.754;2023-07-20T03:56:56;93908.75;;;27.63;22.59
19783;BME280;10051;40.294;-3.754;2023-07-20T03:59:22;93883.34;;;27.56;22.63
19783;BME280;10051;40.294;-3.754;2023-07-20T04:01:47;93927.13;;;27.89;22.79
19783;BME280;10051;40.294;-3.754;2023-07-20T04:04:15;93981.78;;;28.15;23.33
19783;BME280;10051;40.294;-3.754;2023-07-20T04:06:40;93942.16;;;27.87;23.73
19783;BME280;10051;40.294;-3.754;2023-07-20T04:09:06;93948.66;;;28.00;23.51
19783;BME280;10051;40.294;-3.754;2023-07-20T04:11:32;93923.34;;;27.80;23.77
19783;BME280;10051;40.294;-3.754;2023-07-20T04:13:57;93959.97;;;27.77;24.05
19783;BME280;10051;40.294;-3.754;2023-07-20T04:16:23;93937.31;;;27.60;24.88
19783;BME280;10051;40.294;-3.754;2023-07-20T04:18:49;93973.00;;;27.97;24.50
19783;BME280;10051;40.294;-3.754;2023-07-20T04:21:14;93946.53;;;27.63;25.32
19783;BME280;10051;40.294;-3.754;2023-07-20T04:23:40;93929.63;;;27.58;25.23
19783;BME280;10051;40.294;-3.754;2023-07-20T04:26:05;93954.94;;;27.83;25.58
19783;BME280;10051;40.294;-3.754;2023-07-20T04:28:32;93930.72;;;27.68;26.27
19783;BME280;10051;40.294;-3.754;2023-07-20T04:31:10;93878.84;;;27.28;26.71
19783;BME280;10051;40.294;-3.754;2023-07-20T04:33:36;93938.44;;;27.63;26.90
19783;BME280;10051;40.294;-3.754;2023-07-20T04:36:02;93927.72;;;27.52;27.06
19783;BME280;10051;40.294;-3.754;2023-07-20T04:38:28;93983.53;;;27.77;27.65
19783;BME280;10051;40.294;-3.754;2023-07-20T04:40:53;93874.66;;;27.12;27.76
19783;BME280;10051;40.294;-3.754;2023-07-20T04:43:19;93922.78;;;27.28;28.14
19783;BME280;10051;40.294;-3.754;2023-07-20T04:45:45;93976.22;;;27.73;27.83
19783;BME280;10051;40.294;-3.754;2023-07-20T04:48:12;93887.03;;;27.02;28.07
19783;BME280;10051;40.294;-3.754;2023-07-20T04:50:41;93973.16;;;27.60;28.31
19783;BME280;10051;40.294;-3.754;2023-07-20T04:53:09;93972.81;;;27.55;28.59
19783;BME280;10051;40.294;-3.754;2023-07-20T04:55:38;93962.81;;;27.44;29.05
19783;BME280;10051;40.294;-3.754;2023-07-20T04:58:05;93957.78;;;27.46;28.60
19783;BME280;10051;40.294;-3.754;2023-07-20T05:00:32;93873.59;;;26.73;28.88
19783;BME280;10051;40.294;-3.754;2023-07-20T05:02:58;93893.22;;;26.78;29.47
19783;BME280;10051;40.294;-3.754;2023-07-20T05:05:24;93974.44;;;27.27;29.58
19783;BME280;10051;40.294;-3.754;2023-07-20T05:07:50;93855.94;;;26.51;29.64
19783;BME280;10051;40.294;-3.754;2023-07-20T05:10:16;93983.31;;;27.27;29.48
19783;BME280;10051;40.294;-3.754;2023-07-20T05:12:42;93977.13;;;27.30;29.88
19783;BME280;10051;40.294;-3.754;2023-07-20T05:15:08;93914.44;;;26.68;30.06
19783;BME280;10051;40.294;-3.754;2023-07-20T05:17:33;93945.25;;;26.82;30.24
19783;BME280;10051;40.294;-3.754;2023-07-20T05:19:59;93933.34;;;26.61;30.65
19783;BME280;10051;40.294;-3.754;2023-07-20T05:22:24;93937.19;;;26.67;30.86
19783;BME280;10051;40.294;-3.754;2023-07-20T05:24:50;93988.75;;;27.06;31.06
19783;BME280;10051;40.294;-3.754;2023-07-20T05:27:16;93913.31;;;26.62;31.21
19783;BME280;10051;40.294;-3.754;2023-07-20T05:29:45;93988.34;;;27.14;31.26
19783;BME280;10051;40.294;-3.754;2023-07-20T05:32:12;93986.06;;;27.06;31.32
19783;BME280;10051;40.294;-3.754;2023-07-20T05:34:37;93912.91;;;26.56;31.10
19783;BME280;10051;40.294;-3.754;2023-07-20T05:37:03;93957.56;;;26.97;31.16
19783;BME280;10051;40.294;-3.754;2023-07-20T05:39:29;93987.53;;;27.28;30.93
19783;BME280;10051;40.294;-3.754;2023-07-20T05:41:54;93892.91;;;26.61;30.88
19783;BME280;10051;40.294;-3.754;2023-07-20T05:44:20;93929.47;;;26.84;30.87
19783;BME280;10051;40.294;-3.754;2023-07-20T05:46:45;93996.41;;;27.33;31.02
19783;BME280;10051;40.294;-3.754;2023-07-20T05:49:11;93964.06;;;27.14;31.20
19783;BME280;10051;40.294;-3.754;2023-07-20T05:51:36;93994.31;;;27.80;30.20
19783;BME280;10051;40.294;-3.754;2023-07-20T05:54:02;93943.53;;;27.50;30.12
19783;BME280;10051;40.294;-3.754;2023-07-20T05:56:27;94014.69;;;27.92;30.00
19783;BME280;10051;40.294;-3.754;2023-07-20T05:58:53;93937.81;;;27.22;30.49
19783;BME280;10051;40.294;-3.754;2023-07-20T06:01:19;93986.75;;;27.39;31.15
19783;BME280;10051;40.294;-3.754;2023-07-20T06:03:44;93989.44;;;27.39;30.66
19783;BME280;10051;40.294;-3.754;2023-07-20T06:06:10;93991.75;;;27.44;31.06
19783;BME280;10051;40.294;-3.754;2023-07-20T06:08:38;93924.03;;;27.06;30.63
19783;BME280;10051;40.294;-3.754;2023-07-20T06:11:03;93983.63;;;27.55;30.01
19783;BME280;10051;40.294;-3.754;2023-07-20T06:13:29;94020.09;;;27.96;30.49
19783;BME280;10051;40.294;-3.754;2023-07-20T06:15:55;94029.31;;;28.05;30.58
19783;BME280;10051;40.294;-3.754;2023-07-20T06:18:23;93964.34;;;27.53;30.34
19783;BME280;10051;40.294;-3.754;2023-07-20T06:20:52;93934.69;;;27.49;30.34
19783;BME280;10051;40.294;-3.754;2023-07-20T06:23:19;93935.75;;;27.66;30.57
19783;BME280;10051;40.294;-3.754;2023-07-20T06:25:45;94025.28;;;28.39;30.33
19783;BME280;10051;40.294;-3.754;2023-07-20T06:28:11;93869.94;;;27.35;30.02
19783;BME280;10051;40.294;-3.754;2023-07-20T06:30:36;93871.06;;;27.41;30.05
19783;BME280;10051;40.294;-3.754;2023-07-20T06:33:02;93965.44;;;28.37;29.50
19783;BME280;10051;40.294;-3.754;2023-07-20T06:35:28;93964.69;;;28.29;29.67
19783;BME280;10051;40.294;-3.754;2023-07-20T06:37:53;93921.22;;;28.05;29.74
19783;BME280;10051;40.294;-3.754;2023-07-20T06:40:19;93914.31;;;27.97;29.78
19783;BME280;10051;40.294;-3.754;2023-07-20T06:42:45;93930.59;;;27.90;30.15
19783;BME280;10051;40.294;-3.754;2023-07-20T06:45:10;94030.94;;;28.59;29.82
19783;BME280;10051;40.294;-3.754;2023-07-20T06:47:39;94017.03;;;28.57;29.58
19783;BME280;10051;40.294;-3.754;2023-07-20T06:50:06;93999.66;;;28.55;29.45
19783;BME280;10051;40.294;-3.754;2023-07-20T06:52:32;93915.13;;;27.94;29.50
19783;BME280;10051;40.294;-3.754;2023-07-20T06:54:58;93948.47;;;28.29;29.42
19783;BME280;10051;40.294;-3.754;2023-07-20T06:57:23;93947.53;;;28.50;29.45
19783;BME280;10051;40.294;-3.754;2023-07-20T06:59:49;93926.72;;;28.47;29.50
19783;BME280;10051;40.294;-3.754;2023-07-20T07:02:14;93988.22;;;28.89;29.27
19783;BME280;10051;40.294;-3.754;2023-07-20T07:04:41;94036.69;;;29.14;29.31
19783;BME280;10051;40.294;-3.754;2023-07-20T07:07:07;93959.09;;;28.55;29.23
19783;BME280;10051;40.294;-3.754;2023-07-20T07:09:34;94001.78;;;28.82;29.46
19783;BME280;10051;40.294;-3.754;2023-07-20T07:11:59;93937.94;;;28.46;29.34
19783;BME280;10051;40.294;-3.754;2023-07-20T07:14:25;94048.22;;;29.18;29.60
19783;BME280;10051;40.294;-3.754;2023-07-20T07:16:51;94038.19;;;29.15;29.08
19783;BME280;10051;40.294;-3.754;2023-07-20T07:19:16;94014.31;;;29.06;29.09
19783;BME280;10051;40.294;-3.754;2023-07-20T07:21:42;94010.44;;;29.07;29.05
19783;BME280;10051;40.294;-3.754;2023-07-20T07:24:08;94038.91;;;29.23;28.73
19783;BME280;10051;40.294;-3.754;2023-07-20T07:26:35;94000.16;;;28.91;28.92
19783;BME280;10051;40.294;-3.754;2023-07-20T07:29:01;93933.69;;;28.45;29.31
19783;BME280;10051;40.294;-3.754;2023-07-20T07:31:29;93908.13;;;28.53;28.96
19783;BME280;10051;40.294;-3.754;2023-07-20T07:33:56;94050.84;;;29.67;28.55
19783;BME280;10051;40.294;-3.754;2023-07-20T07:36:21;94046.22;;;29.64;28.40
19783;BME280;10051;40.294;-3.754;2023-07-20T07:38:47;94041.53;;;29.68;28.18
19783;BME280;10051;40.294;-3.754;2023-07-20T07:41:14;94011.19;;;29.50;27.77
19783;BME280;10051;40.294;-3.754;2023-07-20T07:43:40;94018.56;;;29.46;28.14
19783;BME280;10051;40.294;-3.754;2023-07-20T07:46:05;94036.50;;;29.71;28.32
19783;BME280;10051;40.294;-3.754;2023-07-20T07:48:31;93956.09;;;29.29;27.92
19783;BME280;10051;40.294;-3.754;2023-07-20T07:51:00;94045.38;;;30.06;26.71
19783;BME280;10051;40.294;-3.754;2023-07-20T07:53:27;93928.84;;;29.44;25.50
19783;BME280;10051;40.294;-3.754;2023-07-20T07:55:54;94040.00;;;30.30;25.02
19783;BME280;10051;40.294;-3.754;2023-07-20T07:58:20;93981.59;;;29.97;24.74
19783;BME280;10051;40.294;-3.754;2023-07-20T08:00:46;93987.09;;;30.21;23.65
19783;BME280;10051;40.294;-3.754;2023-07-20T08:03:13;93861.13;;;29.47;22.46
19783;BME280;10051;40.294;-3.754;2023-07-20T08:05:39;93912.91;;;29.80;21.96
19783;BME280;10051;40.294;-3.754;2023-07-20T08:08:05;93992.59;;;30.41;21.48
19783;BME280;10051;40.294;-3.754;2023-07-20T08:10:31;94003.38;;;30.45;21.58
19783;BME280;10051;40.294;-3.754;2023-07-20T08:12:58;93917.34;;;29.98;21.93
19783;BME280;10051;40.294;-3.754;2023-07-20T08:15:24;93926.47;;;30.08;21.21
19783;BME280;10051;40.294;-3.754;2023-07-20T08:17:49;94046.25;;;31.05;21.18
19783;BME280;10051;40.294;-3.754;2023-07-20T08:20:19;94015.06;;;31.13;21.14
19783;BME280;10051;40.294;-3.754;2023-07-20T08:22:48;93967.53;;;31.05;21.91
19783;BME280;10051;40.294;-3.754;2023-07-20T08:25:14;94046.88;;;31.81;21.45
19783;BME280;10051;40.294;-3.754;2023-07-20T08:27:40;94048.94;;;31.93;20.21
19783;BME280;10051;40.294;-3.754;2023-07-20T08:30:06;93961.16;;;31.56;20.23
19783;BME280;10051;40.294;-3.754;2023-07-20T08:32:33;94018.56;;;32.15;19.99
19783;BME280;10051;40.294;-3.754;2023-07-20T08:34:58;94041.44;;;32.38;19.73
19783;BME280;10051;40.294;-3.754;2023-07-20T08:37:24;94036.69;;;32.42;18.63
19783;BME280;10051;40.294;-3.754;2023-07-20T08:39:55;93991.38;;;32.15;18.58
19783;BME280;10051;40.294;-3.754;2023-07-20T08:42:23;94004.72;;;32.26;18.07
19783;BME280;10051;40.294;-3.754;2023-07-20T08:44:52;94013.03;;;32.39;18.04
19783;BME280;10051;40.294;-3.754;2023-07-20T08:47:21;94011.00;;;32.43;18.30
19783;BME280;10051;40.294;-3.754;2023-07-20T08:49:50;93991.53;;;32.44;18.09
19783;BME280;10051;40.294;-3.754;2023-07-20T08:52:16;94030.22;;;32.69;17.40
19783;BME280;10051;40.294;-3.754;2023-07-20T08:54:42;93987.28;;;32.43;17.80
19783;BME280;10051;40.294;-3.754;2023-07-20T08:57:08;93882.56;;;31.65;18.61
19783;BME280;10051;40.294;-3.754;2023-07-20T08:59:36;93945.00;;;32.22;17.75
19783;BME280;10051;40.294;-3.754;2023-07-20T09:02:02;93974.34;;;32.31;17.38
19783;BME280;10051;40.294;-3.754;2023-07-20T09:04:29;93964.94;;;32.36;18.15
19783;BME280;10051;40.294;-3.754;2023-07-20T09:06:55;93966.44;;;32.53;18.19
19783;BME280;10051;40.294;-3.754;2023-07-20T09:09:20;94007.28;;;32.86;17.42
19783;BME280;10051;40.294;-3.754;2023-07-20T09:11:48;94027.81;;;33.20;18.20
19783;BME280;10051;40.294;-3.754;2023-07-20T09:14:14;94015.72;;;33.21;17.95
19783;BME280;10051;40.294;-3.754;2023-07-20T09:16:48;93937.53;;;32.76;18.11
19783;BME280;10051;40.294;-3.754;2023-07-20T09:19:17;93918.81;;;32.78;17.19
19783;BME280;10051;40.294;-3.754;2023-07-20T09:21:49;93957.81;;;33.04;17.10
19783;BME280;10051;40.294;-3.754;2023-07-20T09:24:19;94030.09;;;33.68;17.06
19783;BME280;10051;40.294;-3.754;2023-07-20T09:26:53;93997.34;;;33.26;16.88
19783;BME280;10051;40.294;-3.754;2023-07-20T09:29:20;93975.88;;;33.28;17.64
19783;BME280;10051;40.294;-3.754;2023-07-20T09:32:04;94039.03;;;33.81;17.28
19783;BME280;10051;40.294;-3.754;2023-07-20T09:34:30;94009.38;;;33.84;17.02
19783;BME280;10051;40.294;-3.754;2023-07-20T09:36:59;94010.97;;;33.98;16.47
19783;BME280;10051;40.294;-3.754;2023-07-20T09:39:26;94010.50;;;33.86;16.15
19783;BME280;10051;40.294;-3.754;2023-07-20T09:41:52;93856.22;;;32.78;16.00
19783;BME280;10051;40.294;-3.754;2023-07-20T09:44:19;94005.13;;;33.83;16.13
19783;BME280;10051;40.294;-3.754;2023-07-20T09:46:48;94005.41;;;34.01;16.09
19783;BME280;10051;40.294;-3.754;2023-07-20T09:49:15;93993.31;;;34.02;16.35
19783;BME280;10051;40.294;-3.754;2023-07-20T09:51:42;93975.22;;;33.95;15.17
19783;BME280;10051;40.294;-3.754;2023-07-20T09:54:13;93969.69;;;33.83;15.12
19783;BME280;10051;40.294;-3.754;2023-07-20T09:56:39;94014.78;;;34.13;15.72
19783;BME280;10051;40.294;-3.754;2023-07-20T09:59:06;94003.44;;;34.02;16.07
19783;BME280;10051;40.294;-3.754;2023-07-20T10:01:33;93967.97;;;33.89;15.98
19783;BME280;10051;40.294;-3.754;2023-07-20T10:04:02;94022.56;;;34.40;15.14
19783;BME280;10051;40.294;-3.754;2023-07-20T10:06:32;94009.25;;;34.55;15.01
19783;BME280;10051;40.294;-3.754;2023-07-20T10:09:01;94000.72;;;34.66;14.89
19783;BME280;10051;40.294;-3.754;2023-07-20T10:11:30;93983.16;;;34.54;14.82
19783;BME280;10051;40.294;-3.754;2023-07-20T10:13:59;94019.06;;;34.66;14.86
19783;BME280;10051;40.294;-3.754;2023-07-20T10:16:39;94026.41;;;34.56;15.00
19783;BME280;10051;40.294;-3.754;2023-07-20T10:19:40;93995.72;;;34.52;14.99
19783;BME280;10051;40.294;-3.754;2023-07-20T10:22:12;94016.34;;;34.66;14.34
19783;BME280;10051;40.294;-3.754;2023-07-20T10:24:39;94008.06;;;34.57;14.59
19783;BME280;10051;40.294;-3.754;2023-07-20T10:27:07;93992.69;;;34.50;14.95
19783;BME280;10051;40.294;-3.754;2023-07-20T10:29:32;94001.03;;;34.68;15.67
19783;BME280;10051;40.294;-3.754;2023-07-20T10:31:58;93973.34;;;34.57;14.68
19783;BME280;10051;40.294;-3.754;2023-07-20T10:34:25;93913.13;;;34.13;14.71
19783;BME280;10051;40.294;-3.754;2023-07-20T10:36:51;93986.94;;;34.83;14.89
19783;BME280;10051;40.294;-3.754;2023-07-20T10:39:31;94004.03;;;35.09;15.26
19783;BME280;10051;40.294;-3.754;2023-07-20T10:42:06;93960.03;;;34.94;15.19
19783;BME280;10051;40.294;-3.754;2023-07-20T10:44:32;93988.72;;;35.12;14.73
19783;BME280;10051;40.294;-3.754;2023-07-20T10:47:02;93932.78;;;34.68;14.77
19783;BME280;10051;40.294;-3.754;2023-07-20T10:49:28;93941.53;;;34.76;14.27
19783;BME280;10051;40.294;-3.754;2023-07-20T10:51:58;93978.81;;;34.92;14.05
19783;BME280;10051;40.294;-3.754;2023-07-20T10:56:52;93984.63;;;35.29;15.16
19783;BME280;10051;40.294;-3.754;2023-07-20T11:01:59;93984.13;;;35.66;14.58
19783;BME280;10051;40.294;-3.754;2023-07-20T11:04:39;93970.47;;;35.66;14.03
19783;BME280;10051;40.294;-3.754;2023-07-20T11:07:06;93982.22;;;35.76;13.88
19783;BME280;10051;40.294;-3.754;2023-07-20T11:09:38;93970.00;;;35.68;14.07
19783;BME280;10051;40.294;-3.754;2023-07-20T11:12:17;93889.81;;;35.17;13.41
19783;BME280;10051;40.294;-3.754;2023-07-20T11:14:52;93967.97;;;35.81;13.40
19783;BME280;10051;40.294;-3.754;2023-07-20T11:17:19;93914.59;;;35.45;12.12
19783;BME280;10051;40.294;-3.754;2023-07-20T11:19:56;93930.34;;;35.41;11.92
19783;BME280;10051;40.294;-3.754;2023-07-20T11:22:22;93972.75;;;35.68;12.67
19783;BME280;10051;40.294;-3.754;2023-07-20T11:24:48;93934.09;;;35.56;13.33
19783;BME280;10051;40.294;-3.754;2023-07-20T11:27:16;93912.28;;;35.43;13.30
19783;BME280;10051;40.294;-3.754;2023-07-20T11:29:45;93943.56;;;35.65;13.39
19783;BME280;10051;40.294;-3.754;2023-07-20T11:32:10;93920.41;;;35.47;12.65
19783;BME280;10051;40.294;-3.754;2023-07-20T11:34:36;93955.94;;;35.79;13.13
19783;BME280;10051;40.294;-3.754;2023-07-20T11:37:02;93944.72;;;35.77;12.99
19783;BME280;10051;40.294;-3.754;2023-07-20T11:39:29;93946.84;;;35.82;12.38
19783;BME280;10051;40.294;-3.754;2023-07-20T11:41:55;93922.59;;;35.62;12.67
19783;BME280;10051;40.294;-3.754;2023-07-20T11:44:28;93926.38;;;35.86;13.33
19783;BME280;10051;40.294;-3.754;2023-07-20T11:47:11;93933.72;;;35.99;12.58
19783;BME280;10051;40.294;-3.754;2023-07-20T11:49:39;93944.38;;;36.06;12.57
19783;BME280;10051;40.294;-3.754;2023-07-20T11:52:06;93936.50;;;36.08;13.35
19783;BME280;10051;40.294;-3.754;2023-07-20T11:54:37;93887.94;;;35.90;12.84
19783;BME280;10051;40.294;-3.754;2023-07-20T11:57:03;93892.28;;;36.10;13.08
19783;BME280;10051;40.294;-3.754;2023-07-20T11:59:31;93914.94;;;36.20;12.59
19783;BME280;10051;40.294;-3.754;2023-07-20T12:01:58;93885.03;;;35.84;13.23
19783;BME280;10051;40.294;-3.754;2023-07-20T12:04:24;93885.38;;;35.96;13.38
19783;BME280;10051;40.294;-3.754;2023-07-20T12:06:49;93938.63;;;36.13;13.45
19783;BME280;10051;40.294;-3.754;2023-07-20T12:09:16;93873.88;;;35.69;13.65
19783;BME280;10051;40.294;-3.754;2023-07-20T12:11:43;93873.84;;;35.60;13.20
19783;BME280;10051;40.294;-3.754;2023-07-20T12:14:10;93924.31;;;36.00;12.35
19783;BME280;10051;40.294;-3.754;2023-07-20T12:16:37;93931.63;;;36.12;12.82
19783;BME280;10051;40.294;-3.754;2023-07-20T12:19:07;93844.25;;;35.68;12.82
19783;BME280;10051;40.294;-3.754;2023-07-20T12:21:34;93920.41;;;36.20;12.74
19783;BME280;10051;40.294;-3.754;2023-07-20T12:24:02;93889.38;;;36.04;12.72
19783;BME280;10051;40.294;-3.754;2023-07-20T12:26:33;93873.22;;;35.97;12.48
19783;BME280;10051;40.294;-3.754;2023-07-20T12:28:59;93868.34;;;35.92;12.15
19783;BME280;10051;40.294;-3.754;2023-07-20T12:31:26;93880.81;;;35.93;11.45
19783;BME280;10051;40.294;-3.754;2023-07-20T12:33:53;93917.19;;;36.02;12.08
19783;BME280;10051;40.294;-3.754;2023-07-20T12:36:24;93900.28;;;35.95;12.21
19783;BME280;10051;40.294;-3.754;2023-07-20T12:38:50;93898.44;;;35.92;12.03
19783;BME280;10051;40.294;-3.754;2023-07-20T12:41:16;93905.28;;;35.96;11.51
19783;BME280;10051;40.294;-3.754;2023-07-20T12:43:44;93900.31;;;36.04;11.17
19783;BME280;10051;40.294;-3.754;2023-07-20T12:46:11;93893.56;;;35.86;11.29
19783;BME280;10051;40.294;-3.754;2023-07-20T12:48:39;93902.06;;;35.88;10.67
19783;BME280;10051;40.294;-3.754;2023-07-20T12:51:06;93892.44;;;35.75;11.25
19783;BME280;10051;40.294;-3.754;2023-07-20T12:53:32;93862.47;;;35.39;11.88
19783;BME280;10051;40.294;-3.754;2023-07-20T12:56:01;93885.81;;;35.53;12.12
19783;BME280;10051;40.294;-3.754;2023-07-20T12:58:27;93860.19;;;35.60;11.67
19783;BME280;10051;40.294;-3.754;2023-07-20T13:00:53;93886.13;;;35.96;11.57
19783;BME280;10051;40.294;-3.754;2023-07-20T13:03:19;93866.56;;;35.98;10.62